createdAt,value
2018-07-14T00:02:24.228Z,51.60
2018-07-14T00:04:52.482Z,51.60
2018-07-14T00:07:20.704Z,51.70
2018-07-14T00:09:48.934Z,51.90
2018-07-14T00:12:18.289Z,52.60
2018-07-14T00:14:46.869Z,52.40
2018-07-14T00:17:15.470Z,52.50
2018-07-14T00:19:43.778Z,52.10
2018-07-14T00:22:11.997Z,51.70
2018-07-14T00:24:40.291Z,51.10
2018-07-14T00:27:08.551Z,51.30
2018-07-14T00:29:36.812Z,51.60
2018-07-14T00:32:05.109Z,51.30
2018-07-14T00:34:33.491Z,50.80
2018-07-14T00:37:02.586Z,51.50
2018-07-14T00:39:31.666Z,51.50
2018-07-14T00:41:59.981Z,51.10
2018-07-14T00:44:28.300Z,50.70
2018-07-14T00:46:56.520Z,49.70
2018-07-14T00:49:25.090Z,50.20
2018-07-14T00:51:53.325Z,49.80
2018-07-14T00:54:21.571Z,49.30
2018-07-14T00:56:49.781Z,49.30
2018-07-14T00:59:18.042Z,50.10
2018-07-14T01:01:46.533Z,49.90
2018-07-14T01:04:14.774Z,49.50
2018-07-14T01:06:43.097Z,49.30
2018-07-14T01:09:11.340Z,49.70
2018-07-14T01:11:40.297Z,49.20
2018-07-14T01:14:08.733Z,49.10
2018-07-14T01:16:37.001Z,49.60
2018-07-14T01:19:05.510Z,50.20
2018-07-14T01:21:33.830Z,50.50
2018-07-14T01:24:02.244Z,50.50
2018-07-14T01:26:31.226Z,51.50
2018-07-14T01:28:59.524Z,51.70
2018-07-14T01:31:27.794Z,51.70
2018-07-14T01:33:56.014Z,51.30
2018-07-14T01:36:24.733Z,52.30
2018-07-14T01:38:53.025Z,52.00
2018-07-14T01:41:21.275Z,52.10
2018-07-14T01:43:49.825Z,51.30
2018-07-14T01:46:18.061Z,51.40
2018-07-14T01:48:46.375Z,52.40
2018-07-14T01:51:14.614Z,52.60
2018-07-14T01:53:42.820Z,52.00
2018-07-14T01:56:11.069Z,51.40
2018-07-14T01:58:39.434Z,51.60
2018-07-14T02:01:07.998Z,51.90
2018-07-14T02:03:36.202Z,51.50
2018-07-14T02:06:04.465Z,50.90
2018-07-14T02:08:33.246Z,50.30
2018-07-14T02:11:02.225Z,50.20
2018-07-14T02:13:30.478Z,51.40
2018-07-14T02:15:58.705Z,51.20
2018-07-14T02:18:27.007Z,51.00
2018-07-14T02:20:56.222Z,51.30
2018-07-14T02:23:24.587Z,51.40
2018-07-14T02:25:52.847Z,51.40
2018-07-14T02:28:21.097Z,51.30
2018-07-14T02:30:49.311Z,52.30
2018-07-14T02:33:17.673Z,51.40
2018-07-14T02:35:46.025Z,52.10
2018-07-14T02:38:14.455Z,53.10
2018-07-14T02:40:42.694Z,53.80
2018-07-14T02:43:10.938Z,53.20
2018-07-14T02:45:39.703Z,51.70
2018-07-14T02:48:07.924Z,51.60
2018-07-14T02:50:36.154Z,51.00
2018-07-14T02:53:04.618Z,50.90
2018-07-14T02:55:32.959Z,50.90
2018-07-14T02:58:01.280Z,51.40
2018-07-14T03:00:29.519Z,51.80
2018-07-14T03:02:57.782Z,53.00
2018-07-14T03:05:26.090Z,52.40
2018-07-14T03:07:54.331Z,51.90
2018-07-14T03:10:22.558Z,51.80
2018-07-14T03:12:50.857Z,51.20
2018-07-14T03:15:19.009Z,51.00
2018-07-14T03:17:47.786Z,51.30
2018-07-14T03:20:16.147Z,50.70
2018-07-14T03:22:44.737Z,50.90
2018-07-14T03:25:13.002Z,50.60
2018-07-14T03:27:41.262Z,51.50
2018-07-14T03:30:09.637Z,50.80
2018-07-14T03:32:43.216Z,50.80
2018-07-14T03:35:11.488Z,50.40
2018-07-14T03:37:39.798Z,51.40
2018-07-14T03:40:09.350Z,52.40
2018-07-14T03:42:37.576Z,52.00
2018-07-14T03:45:06.455Z,52.80
2018-07-14T03:47:34.750Z,51.60
2018-07-14T03:50:03.644Z,52.20
2018-07-14T03:52:31.917Z,52.20
2018-07-14T03:55:00.181Z,50.70
2018-07-14T03:57:28.472Z,49.80
2018-07-14T03:59:56.673Z,49.30
2018-07-14T04:02:25.138Z,49.00
2018-07-14T04:04:53.378Z,48.80
2018-07-14T04:07:22.022Z,48.50
2018-07-14T04:09:50.444Z,49.60
2018-07-14T04:12:18.650Z,49.80
2018-07-14T04:14:46.960Z,49.20
2018-07-14T04:17:15.186Z,48.70
2018-07-14T04:19:43.622Z,48.40
2018-07-14T04:22:11.958Z,49.40
2018-07-14T04:24:40.818Z,49.90
2018-07-14T04:27:09.111Z,50.10
2018-07-14T04:29:37.403Z,50.40
2018-07-14T04:32:05.666Z,50.20
2018-07-14T04:34:33.986Z,50.00
2018-07-14T04:37:02.237Z,49.60
2018-07-14T04:39:30.633Z,48.70
2018-07-14T04:41:58.851Z,48.00
2018-07-14T04:44:27.074Z,47.60
2018-07-14T04:46:55.463Z,49.10
2018-07-14T04:49:23.785Z,48.80
2018-07-14T04:51:52.007Z,48.40
2018-07-14T04:54:20.282Z,48.00
2018-07-14T04:56:49.421Z,47.50
2018-07-14T04:59:17.809Z,47.60
2018-07-14T05:01:46.126Z,47.90
2018-07-14T05:04:14.338Z,47.40
2018-07-14T05:06:42.582Z,47.30
2018-07-14T05:09:10.843Z,48.00
2018-07-14T05:11:39.310Z,47.20
2018-07-14T05:14:07.538Z,47.10
2018-07-14T05:16:35.766Z,47.10
2018-07-14T05:19:04.075Z,47.10
2018-07-14T05:21:32.422Z,47.10
2018-07-14T05:24:00.630Z,47.40
2018-07-14T05:26:28.850Z,47.50
2018-07-14T05:28:57.080Z,47.30
2018-07-14T05:31:25.841Z,47.20
2018-07-14T05:33:54.307Z,46.80
2018-07-14T05:36:22.540Z,46.70
2018-07-14T05:38:50.756Z,46.00
2018-07-14T05:41:19.075Z,45.50
2018-07-14T05:43:47.509Z,45.60
2018-07-14T05:46:16.322Z,45.40
2018-07-14T05:48:44.541Z,45.00
2018-07-14T05:51:12.773Z,44.90
2018-07-14T05:53:41.053Z,43.70
2018-07-14T05:56:09.464Z,45.00
2018-07-14T05:58:37.681Z,43.80
2018-07-14T06:03:33.982Z,43.10
2018-07-14T06:06:02.727Z,43.70
2018-07-14T06:08:31.013Z,43.00
2018-07-14T06:10:59.285Z,43.50
2018-07-14T06:13:27.512Z,44.20
2018-07-14T06:15:56.494Z,43.90
2018-07-14T06:18:25.264Z,43.90
2018-07-14T06:20:53.513Z,44.10
2018-07-14T06:23:21.727Z,43.10
2018-07-14T06:25:49.945Z,43.10
2018-07-14T06:28:18.947Z,42.80
2018-07-14T06:30:48.762Z,42.70
2018-07-14T06:33:17.131Z,42.60
2018-07-14T06:35:45.403Z,41.90
2018-07-14T06:38:13.667Z,42.60
2018-07-14T06:40:41.890Z,41.20
2018-07-14T06:43:10.188Z,41.30
2018-07-14T06:45:39.396Z,40.80
2018-07-14T06:48:08.501Z,40.50
2018-07-14T06:50:36.673Z,40.70
2018-07-14T06:53:04.903Z,40.40
2018-07-14T06:55:33.161Z,39.60
2018-07-14T06:58:01.409Z,39.40
2018-07-14T07:00:29.619Z,39.90
2018-07-14T07:02:57.836Z,40.10
2018-07-14T07:05:26.085Z,38.80
2018-07-14T07:07:54.395Z,38.40
2018-07-14T07:10:22.619Z,39.50
2018-07-14T07:12:50.843Z,39.10
2018-07-14T07:15:19.096Z,38.60
2018-07-14T07:17:48.405Z,39.20
2018-07-14T07:20:16.862Z,39.30
2018-07-14T07:22:45.124Z,38.40
2018-07-14T07:25:13.381Z,38.90
2018-07-14T07:27:41.564Z,39.00
2018-07-14T07:30:10.815Z,36.80
2018-07-14T07:32:39.317Z,36.50
2018-07-14T07:35:07.566Z,35.10
2018-07-14T07:37:35.801Z,34.70
2018-07-14T07:40:04.017Z,34.90
2018-07-14T07:42:32.440Z,35.30
2018-07-14T07:45:00.627Z,35.80
2018-07-14T07:47:29.577Z,34.30
2018-07-14T07:49:57.789Z,34.80
2018-07-14T07:52:26.019Z,33.90
2018-07-14T07:54:54.631Z,33.10
2018-07-14T07:57:22.837Z,32.20
2018-07-14T07:59:51.053Z,30.90
2018-07-14T08:02:19.257Z,29.20
2018-07-14T08:04:48.060Z,28.50
2018-07-14T08:07:17.457Z,27.70
2018-07-14T08:09:45.678Z,26.40
2018-07-14T08:12:13.905Z,25.50
2018-07-14T08:14:42.153Z,24.70
2018-07-14T08:17:10.406Z,24.20
2018-07-14T08:19:39.807Z,23.90
2018-07-14T08:22:08.233Z,22.40
2018-07-14T08:24:36.487Z,22.10
2018-07-14T08:27:04.725Z,21.80
2018-07-14T08:29:33.048Z,20.50
2018-07-14T08:32:01.429Z,20.10
2018-07-14T08:34:29.666Z,19.40
2018-07-14T08:36:57.885Z,19.10
2018-07-14T08:39:26.115Z,18.50
2018-07-14T08:41:54.529Z,18.20
2018-07-14T08:44:22.768Z,17.30
2018-07-14T08:46:50.949Z,17.20
2018-07-14T08:49:19.153Z,17.40
2018-07-14T08:51:47.929Z,17.20
2018-07-14T08:54:16.429Z,17.70
2018-07-14T08:56:44.678Z,16.80
2018-07-14T08:59:12.898Z,16.50
2018-07-14T09:01:41.104Z,16.90
2018-07-14T09:04:09.853Z,16.70
2018-07-14T09:06:38.762Z,16.30
2018-07-14T09:09:07.263Z,15.70
2018-07-14T09:11:35.490Z,15.80
2018-07-14T09:14:03.694Z,15.40
2018-07-14T09:16:32.070Z,15.40
2018-07-14T09:19:00.218Z,15.60
2018-07-14T09:21:28.471Z,16.40
2018-07-14T09:23:56.746Z,15.90
2018-07-14T09:26:25.005Z,15.40
2018-07-14T09:28:53.246Z,15.80
2018-07-14T09:31:21.442Z,15.10
2018-07-14T09:33:49.746Z,15.30
2018-07-14T09:36:18.497Z,14.50
2018-07-14T09:38:46.840Z,14.80
2018-07-14T09:41:15.082Z,15.50
2018-07-14T09:43:43.277Z,14.10
2018-07-14T09:46:11.521Z,14.70
2018-07-14T09:48:40.370Z,14.20
2018-07-14T09:51:09.768Z,14.10
2018-07-14T09:56:06.266Z,13.80
2018-07-14T09:58:34.485Z,14.20
2018-07-14T10:01:09.933Z,14.60
2018-07-14T10:03:38.985Z,14.20
2018-07-14T10:06:07.213Z,15.10
2018-07-14T10:08:35.413Z,14.10
2018-07-14T10:11:03.634Z,14.30
2018-07-14T10:13:31.890Z,14.10
2018-07-14T10:16:00.114Z,14.40
2018-07-14T10:18:28.379Z,14.00
2018-07-14T10:20:56.629Z,13.70
2018-07-14T10:23:24.917Z,14.20
2018-07-14T10:25:53.449Z,14.90
2018-07-14T10:28:21.590Z,14.70
2018-07-14T10:33:18.401Z,15.50
2018-07-14T10:35:46.705Z,15.20
2018-07-14T10:38:14.951Z,14.70
2018-07-14T10:40:43.161Z,14.70
2018-07-14T10:43:11.395Z,13.30
2018-07-14T10:45:39.778Z,13.70
2018-07-14T10:48:08.154Z,13.50
2018-07-14T10:50:36.361Z,13.30
2018-07-14T10:53:04.711Z,13.10
2018-07-14T10:55:33.039Z,13.40
2018-07-14T10:58:01.316Z,13.10
2018-07-14T11:00:29.682Z,13.50
2018-07-14T11:02:57.905Z,13.10
2018-07-14T11:05:26.142Z,12.80
2018-07-14T11:07:54.497Z,13.30
2018-07-14T11:10:22.693Z,13.70
2018-07-14T11:12:50.983Z,12.90
2018-07-14T11:15:19.193Z,13.60
2018-07-14T11:17:47.534Z,13.00
2018-07-14T11:20:15.761Z,13.40
2018-07-14T11:22:44.035Z,13.20
2018-07-14T11:25:12.438Z,13.50
2018-07-14T11:27:40.725Z,13.90
2018-07-14T11:30:08.994Z,15.00
2018-07-14T11:32:37.919Z,14.90
2018-07-14T11:35:06.134Z,15.10
2018-07-14T11:37:34.446Z,15.00
2018-07-14T11:40:02.742Z,15.00
2018-07-14T11:42:31.156Z,15.20
2018-07-14T11:44:59.966Z,14.30
2018-07-14T11:47:28.225Z,13.80
2018-07-14T11:49:56.455Z,14.10
2018-07-14T11:52:24.793Z,13.90
2018-07-14T11:54:53.242Z,14.30
2018-07-14T11:57:21.497Z,13.30
2018-07-14T12:02:18.053Z,13.50
2018-07-14T12:04:46.371Z,14.40
2018-07-14T12:07:15.172Z,15.30
2018-07-14T12:09:43.549Z,15.30
2018-07-14T12:12:12.126Z,14.60
2018-07-14T12:14:40.377Z,13.90
2018-07-14T12:17:08.621Z,13.70
2018-07-14T12:19:36.855Z,12.90
2018-07-14T12:22:05.257Z,13.70
2018-07-14T12:24:33.541Z,13.00
2018-07-14T12:27:01.839Z,12.90
2018-07-14T12:29:30.065Z,12.30
2018-07-14T12:31:59.312Z,12.90
2018-07-14T12:34:28.105Z,13.10
2018-07-14T12:36:57.002Z,12.00
2018-07-14T12:39:25.234Z,12.40
2018-07-14T12:41:53.465Z,12.80
2018-07-14T12:44:21.678Z,13.70
2018-07-14T12:46:50.038Z,13.70
2018-07-14T12:49:18.426Z,14.30
2018-07-14T12:51:46.657Z,14.70
2018-07-14T12:54:14.840Z,14.70
2018-07-14T12:56:43.210Z,14.70
2018-07-14T12:59:11.487Z,15.90
2018-07-14T13:01:39.909Z,16.30
2018-07-14T13:04:09.026Z,16.70
2018-07-14T13:06:37.316Z,17.00
2018-07-14T13:09:05.888Z,17.50
2018-07-14T13:11:34.303Z,17.50
2018-07-14T13:14:02.548Z,18.60
2018-07-14T13:16:30.770Z,18.60
2018-07-14T13:18:59.018Z,19.40
2018-07-14T13:21:27.330Z,19.50
2018-07-14T13:23:55.546Z,20.50
2018-07-14T13:26:23.774Z,20.10
2018-07-14T13:28:52.099Z,19.90
2018-07-14T13:31:20.442Z,20.60
2018-07-14T13:33:48.785Z,20.20
2018-07-14T13:36:17.175Z,19.90
2018-07-14T13:41:13.761Z,20.00
2018-07-14T13:43:41.969Z,19.70
2018-07-14T13:46:10.245Z,19.60
2018-07-14T13:48:38.474Z,20.20
2018-07-14T13:51:07.352Z,20.40
2018-07-14T13:53:36.247Z,21.10
2018-07-14T13:56:04.574Z,19.60
2018-07-14T13:58:32.845Z,17.90
2018-07-14T14:01:01.070Z,16.80
2018-07-14T14:03:29.269Z,16.50
2018-07-14T14:05:57.541Z,16.90
2018-07-14T14:08:25.780Z,16.80
2018-07-14T14:10:54.113Z,18.00
2018-07-14T14:13:22.425Z,17.80
2018-07-14T14:15:50.804Z,17.50
2018-07-14T14:18:19.302Z,17.60
2018-07-14T14:20:47.630Z,18.20
2018-07-14T14:23:15.909Z,18.60
2018-07-14T14:25:44.190Z,19.20
2018-07-14T14:28:12.701Z,19.60
2018-07-14T14:30:41.285Z,19.10
2018-07-14T14:33:09.493Z,19.50
2018-07-14T14:35:39.451Z,20.40
2018-07-14T14:38:07.763Z,18.80
2018-07-14T14:40:36.713Z,17.20
2018-07-14T14:43:05.055Z,15.90
2018-07-14T14:45:33.290Z,16.50
2018-07-14T14:48:01.537Z,15.70
2018-07-14T14:50:29.905Z,15.60
2018-07-14T14:52:58.434Z,15.20
2018-07-14T14:55:26.805Z,15.50
2018-07-14T14:57:55.084Z,16.10
2018-07-14T15:00:23.362Z,16.70
2018-07-14T15:02:51.593Z,17.50
2018-07-14T15:05:19.881Z,18.30
2018-07-14T15:07:48.069Z,18.40
2018-07-14T15:10:16.266Z,19.20
2018-07-14T15:12:44.517Z,19.80
2018-07-14T15:15:12.790Z,19.80
2018-07-14T15:17:41.043Z,20.60
2018-07-14T15:20:09.333Z,20.70
2018-07-14T15:25:06.310Z,20.60
2018-07-14T15:27:34.538Z,22.00
2018-07-14T15:30:02.751Z,22.40
2018-07-14T15:32:31.087Z,23.00
2018-07-14T15:34:59.381Z,22.80
2018-07-14T15:37:27.805Z,22.50
2018-07-14T15:39:56.009Z,22.20
2018-07-14T15:42:24.223Z,24.50
2018-07-14T15:44:52.438Z,26.60
2018-07-14T15:47:20.742Z,27.90
2018-07-14T15:49:50.085Z,29.20
2018-07-14T15:52:18.302Z,29.90
2018-07-14T15:54:46.535Z,30.30
2018-07-14T15:57:14.842Z,31.40
2018-07-14T15:59:43.123Z,32.30
2018-07-14T16:02:11.579Z,32.60
2018-07-14T16:04:39.817Z,32.20
2018-07-14T16:07:08.161Z,31.40
2018-07-14T16:09:36.503Z,29.90
2018-07-14T16:12:04.722Z,28.30
2018-07-14T16:14:32.932Z,28.50
2018-07-14T16:17:01.128Z,28.40
2018-07-14T16:19:29.348Z,28.10
2018-07-14T16:21:57.598Z,28.60
2018-07-14T16:24:25.884Z,28.50
2018-07-14T16:29:22.205Z,28.10
2018-07-14T16:31:50.907Z,28.40
2018-07-14T16:34:19.469Z,28.80
2018-07-14T16:36:47.900Z,28.90
2018-07-14T16:39:16.130Z,28.60
2018-07-14T16:41:44.390Z,28.60
2018-07-14T16:44:12.802Z,27.90
2018-07-14T16:46:41.530Z,28.00
2018-07-14T16:51:37.790Z,27.60
2018-07-14T16:54:06.233Z,27.50
2018-07-14T16:56:34.535Z,28.30
2018-07-14T16:59:03.194Z,28.50
2018-07-14T17:01:31.423Z,27.90
2018-07-14T17:03:59.689Z,27.50
2018-07-14T17:06:28.610Z,28.00
2018-07-14T17:08:57.004Z,27.30
2018-07-14T17:11:25.350Z,27.00
2018-07-14T17:13:53.654Z,26.90
2018-07-14T17:16:21.885Z,27.50
2018-07-14T17:18:50.159Z,27.60
2018-07-14T17:21:18.968Z,27.90
2018-07-14T17:23:47.454Z,27.80
2018-07-14T17:26:15.754Z,26.80
2018-07-14T17:28:44.085Z,27.40
2018-07-14T17:31:13.352Z,27.20
2018-07-14T17:33:41.701Z,26.70
2018-07-14T17:36:10.102Z,27.80
2018-07-14T17:38:38.546Z,27.90
2018-07-14T17:41:06.863Z,27.60
2018-07-14T17:43:35.305Z,27.60
2018-07-14T17:46:04.333Z,27.90
2018-07-14T17:48:32.609Z,27.90
2018-07-14T17:51:01.020Z,28.50
2018-07-14T17:53:29.263Z,28.70
2018-07-14T17:55:58.422Z,28.70
2018-07-14T17:58:27.817Z,28.60
2018-07-14T18:00:56.099Z,29.20
2018-07-14T18:03:24.651Z,28.80
2018-07-14T18:05:52.980Z,28.80
2018-07-14T18:08:21.326Z,29.10
2018-07-14T18:10:49.704Z,30.00
2018-07-14T18:13:17.943Z,29.90
2018-07-14T18:15:46.228Z,30.00
2018-07-14T18:18:14.514Z,30.20
2018-07-14T18:20:43.049Z,30.00
2018-07-14T18:23:11.350Z,30.00
2018-07-14T18:25:39.726Z,30.10
2018-07-14T18:28:07.995Z,30.10
2018-07-14T18:30:36.566Z,30.70
2018-07-14T18:33:05.273Z,31.20
2018-07-14T18:35:33.794Z,31.50
2018-07-14T18:38:02.114Z,31.70
2018-07-14T18:40:30.386Z,32.40
2018-07-14T18:42:58.798Z,32.50
2018-07-14T18:45:27.296Z,32.90
2018-07-14T18:47:55.765Z,32.90
2018-07-14T18:50:24.010Z,33.20
2018-07-14T18:52:52.249Z,33.40
2018-07-14T18:55:20.754Z,33.80
2018-07-14T18:57:49.301Z,34.10
2018-07-14T19:00:17.538Z,34.30
2018-07-14T19:02:45.850Z,34.80
2018-07-14T19:05:14.035Z,35.00
2018-07-14T19:07:43.009Z,35.30
2018-07-14T19:10:11.382Z,35.20
2018-07-14T19:12:39.667Z,35.30
2018-07-14T19:15:08.035Z,35.70
2018-07-14T19:17:36.309Z,35.90
2018-07-14T19:20:04.598Z,36.10
2018-07-14T19:22:32.906Z,36.10
2018-07-14T19:25:01.263Z,36.00
2018-07-14T19:27:29.854Z,36.00
2018-07-14T19:32:26.369Z,36.90
2018-07-14T19:34:54.592Z,37.00
2018-07-14T19:37:22.823Z,36.90
2018-07-14T19:39:51.160Z,36.90
2018-07-14T19:42:19.626Z,36.90
2018-07-14T19:44:47.881Z,37.30
2018-07-14T19:47:16.132Z,37.90
2018-07-14T19:49:44.433Z,37.60
2018-07-14T19:52:12.812Z,37.80
2018-07-14T19:54:41.485Z,37.50
2018-07-14T19:57:09.747Z,37.40
2018-07-14T19:59:37.954Z,37.10
2018-07-14T20:02:06.613Z,36.90
2018-07-14T20:04:34.895Z,36.80
2018-07-14T20:07:03.170Z,36.60
2018-07-14T20:09:31.818Z,36.40
2018-07-14T20:12:00.070Z,36.50
2018-07-14T20:14:28.297Z,36.50
2018-07-14T20:16:56.976Z,36.30
2018-07-14T20:19:25.197Z,36.40
2018-07-14T20:21:53.420Z,36.50
2018-07-14T20:24:21.941Z,36.30
2018-07-14T20:26:50.471Z,36.60
2018-07-14T20:29:18.693Z,37.00
2018-07-14T20:31:47.057Z,37.40
2018-07-14T20:34:15.335Z,37.00
2018-07-14T20:36:43.578Z,36.90
2018-07-14T20:39:13.018Z,37.10
2018-07-14T20:41:41.341Z,36.90
2018-07-14T20:44:09.493Z,37.40
2018-07-14T20:46:37.734Z,36.90
2018-07-14T20:49:06.090Z,37.10
2018-07-14T20:51:34.389Z,37.30
2018-07-14T20:54:02.594Z,38.10
2018-07-14T20:56:30.838Z,38.40
2018-07-14T20:58:59.186Z,38.20
2018-07-14T21:01:27.433Z,38.50
2018-07-14T21:03:55.655Z,38.80
2018-07-14T21:06:23.874Z,39.10
2018-07-14T21:08:52.111Z,39.10
2018-07-14T21:11:20.588Z,39.40
2018-07-14T21:13:49.100Z,39.60
2018-07-14T21:16:17.415Z,40.00
2018-07-14T21:18:45.655Z,39.70
2018-07-14T21:21:14.148Z,39.70
2018-07-14T21:23:43.510Z,39.70
2018-07-14T21:26:12.406Z,40.40
2018-07-14T21:28:40.774Z,41.10
2018-07-14T21:31:09.049Z,40.50
2018-07-14T21:33:37.286Z,40.80
2018-07-14T21:36:06.584Z,41.10
2018-07-14T21:38:35.055Z,40.80
2018-07-14T21:41:03.277Z,40.50
2018-07-14T21:43:31.524Z,40.50
2018-07-14T21:45:59.734Z,40.30
2018-07-14T21:48:29.023Z,40.80
2018-07-14T21:50:57.803Z,41.10
2018-07-14T21:55:54.027Z,41.60
2018-07-14T21:58:22.308Z,42.10
2018-07-14T22:00:55.897Z,42.70
2018-07-14T22:03:24.180Z,42.50
2018-07-14T22:05:52.449Z,42.30
2018-07-14T22:08:20.829Z,43.00
2018-07-14T22:10:49.126Z,43.80
2018-07-14T22:13:17.365Z,44.10
2018-07-14T22:15:45.654Z,43.50
2018-07-14T22:18:13.976Z,43.30
2018-07-14T22:20:42.321Z,43.50
2018-07-14T22:23:10.599Z,44.30
2018-07-14T22:25:38.837Z,43.90
2018-07-14T22:28:08.043Z,44.70
2018-07-14T22:30:36.538Z,44.30
2018-07-14T22:33:04.830Z,45.20
2018-07-14T22:35:33.094Z,44.90
2018-07-14T22:38:01.285Z,44.60
2018-07-14T22:40:29.549Z,44.60
2018-07-14T22:42:57.877Z,45.30
2018-07-14T22:45:26.096Z,45.30
2018-07-14T22:47:54.341Z,45.50
2018-07-14T22:50:22.577Z,45.30
2018-07-14T22:52:51.574Z,45.00
2018-07-14T22:55:20.207Z,44.80
2018-07-14T22:57:48.413Z,45.10
2018-07-14T23:00:16.717Z,45.00
2018-07-14T23:02:44.960Z,45.20
2018-07-14T23:05:13.913Z,46.00
2018-07-14T23:07:42.904Z,45.80
2018-07-14T23:10:11.127Z,45.90
2018-07-14T23:12:39.385Z,46.20
2018-07-14T23:15:07.633Z,46.10
2018-07-14T23:17:36.065Z,45.60
2018-07-14T23:20:04.329Z,46.20
2018-07-14T23:22:32.577Z,46.00
2018-07-14T23:25:00.905Z,45.60
2018-07-14T23:27:29.140Z,45.70
2018-07-14T23:29:57.931Z,46.90
2018-07-14T23:32:26.230Z,46.50
2018-07-14T23:34:54.575Z,46.10
2018-07-14T23:37:22.793Z,45.80
2018-07-14T23:39:51.266Z,45.40
2018-07-14T23:42:19.639Z,45.30
2018-07-14T23:44:47.919Z,44.70
2018-07-14T23:47:16.198Z,44.80
2018-07-14T23:49:44.766Z,44.90
2018-07-14T23:52:13.272Z,45.20
2018-07-14T23:54:41.499Z,45.20
2018-07-14T23:57:09.773Z,45.20
2018-07-14T23:59:38.050Z,44.70
